KMWK

Mount Airy / Surry County Airport

Mount Airy, North Carolina, USA
METAR KMWK 222040Z AUTO 22004KT 10SM CLR 16/04 A3024 RMK AO2 T01560041
Observed Flight Rules
Oct-22 @ 20:40 UTC (21 minutes ago) Visual Flight Rules
Wind Visibility Clouds
220° at 4 knots 10 miles
  • Clear skies
Temperatures Readings
Current 16°C / 61°F
Dewpoint 4°C / 39°F
Humidity 45%
Altimeter 30.24" Hg
Pressure 1024 hPa
Elevation 380
METAR KMWK 222040Z AUTO 22004KT 10SM CLR 16/04 A3024 RMK AO2 T01560041
Observed Flight Rules
Oct-22 @ 20:40 UTC
(21 minutes ago)
VFR
Wind Visibility
220° at 4 knots 10 miles
Clouds
  • Clear skies
Temperature Dewpoint
16°C / 61°F 4°C / 39°F
Humidity Altimeter Pressure
45% 30.24" Hg 1024 hPa